Hill City, Kansas
Current Conditions -  °F | °C
As of 5:53 PM on Friday 24 Oct 2014 (Local Time) from KHLC Reporting Station
Clear Clear  
Wind Chill: 84°   Ceiling: Unl
Heat Index: 84°   Visibility: 10mi
Dew Point: 41°   Wind: 5mph
Humidity: 22%   Direction: 60°ENE
Pressure: 29.99"   Gusts: NA
Location:  39.36°N, 99.84°W
Report Text: KHLC 242253Z AUTO 06004KT 10SM CLR 29/05 A2999 RMK AO2 SLP137 T02890050
Loading
Personal Weather Stations






























Interactive Weather Map New forecast layout! Learn more

10-Day Weather Forecast

Advertisements
Track Severe Weather on mobile